Time;durP1;ratioP1;P1;durP2;ratioP2;P2;SDS_P1;SDS_P2;PMS_P1;PMS_P2;Temp;Humidity;BMP_temperature;BMP_pressure;BME280_temperature;BME280_humidity;BME280_pressure;Samples;Min_cycle;Max_cycle;Signal;HPM_P1;HPM_P2
2021/03/08 00:00:38;;;;;;;7.85;3.53;;;-3275.60;80.60;;;;;;4999212;28;20050;-57
2021/03/08 00:03:07;;;;;;;9.10;3.67;;;-3275.60;80.50;;;;;;5001506;28;20399;-58
2021/03/08 00:05:35;;;;;;;6.55;3.40;;;-3275.50;80.80;;;;;;5006369;28;20113;-59
2021/03/08 00:08:08;;;;;;;7.28;3.60;;;-3275.50;80.80;;;;;;5005729;28;20060;-58
2021/03/08 00:10:35;;;;;;;5.32;2.63;;;-3275.50;80.60;;;;;;5006781;28;20125;-57
2021/03/08 00:13:03;;;;;;;4.40;2.50;;;-3275.50;80.90;;;;;;5003838;28;20054;-57
2021/03/08 00:15:30;;;;;;;5.88;3.10;;;-3275.50;80.40;;;;;;5008975;28;20116;-58
2021/03/08 00:17:57;;;;;;;7.30;3.08;;;-3275.50;80.80;;;;;;5010569;28;20057;-58
2021/03/08 00:20:26;;;;;;;6.28;3.17;;;-3275.50;80.70;;;;;;5003879;28;20364;-58
2021/03/08 00:22:54;;;;;;;5.90;3.85;;;-3275.50;80.70;;;;;;5001892;28;20053;-57
2021/03/08 00:25:24;;;;;;;5.10;2.75;;;-3275.60;80.10;;;;;;5010341;28;20042;-57
2021/03/08 00:27:51;;;;;;;6.65;4.00;;;-3275.60;79.80;;;;;;4999494;28;20062;-57
2021/03/08 00:30:19;;;;;;;8.38;3.38;;;-3275.60;79.90;;;;;;5009705;28;20056;-57
2021/03/08 00:32:49;;;;;;;7.25;3.35;;;-3275.60;79.90;;;;;;5011438;28;20245;-56
2021/03/08 00:35:17;;;;;;;16.67;3.40;;;-3275.50;80.30;;;;;;5010547;28;20270;-57
2021/03/08 00:37:45;;;;;;;6.32;3.28;;;-3275.50;80.90;;;;;;5011859;28;20058;-57
2021/03/08 00:40:15;;;;;;;7.25;4.05;;;-3275.30;81.20;;;;;;5011398;28;20100;-57
2021/03/08 00:42:43;;;;;;;6.35;3.72;;;-3275.20;81.30;;;;;;5014226;28;20068;-58
2021/03/08 00:45:13;;;;;;;7.55;3.75;;;-3275.20;81.70;;;;;;5028252;28;20046;-57
2021/03/08 00:47:40;;;;;;;6.80;3.55;;;-3275.20;81.50;;;;;;5013361;28;20264;-57
2021/03/08 00:50:14;;;;;;;8.30;3.40;;;-3275.10;81.80;;;;;;5011989;28;20060;-57
2021/03/08 00:52:51;;;;;;;10.50;3.85;;;-3275.10;81.90;;;;;;5012036;28;20088;-57
2021/03/08 00:55:28;;;;;;;9.23;3.55;;;-3275.10;82.30;;;;;;5013715;28;20371;-57
2021/03/08 00:57:56;;;;;;;11.20;4.60;;;-3275.10;82.30;;;;;;5005562;28;20122;-57
2021/03/08 01:00:27;;;;;;;6.50;3.38;;;-3275.00;82.40;;;;;;5006444;28;20057;-58
2021/03/08 01:02:59;;;;;;;6.18;2.50;;;-3275.00;82.60;;;;;;5026929;28;20050;-58
2021/03/08 01:05:29;;;;;;;3.97;2.08;;;-3274.90;82.60;;;;;;5009706;28;20061;-58
2021/03/08 01:08:00;;;;;;;6.32;3.00;;;-3274.90;82.90;;;;;;5012569;28;20074;-58
2021/03/08 01:10:42;;;;;;;4.38;1.92;;;-3274.90;83.10;;;;;;5006887;28;20054;-58
2021/03/08 01:13:16;;;;;;;5.68;2.72;;;-3274.90;83.20;;;;;;5025549;28;20237;-58
2021/03/08 01:15:45;;;;;;;7.68;2.88;;;-3274.80;83.10;;;;;;5027269;28;20064;-58
2021/03/08 01:18:15;;;;;;;6.25;2.38;;;-3274.80;83.30;;;;;;5025641;28;20125;-57
2021/03/08 01:20:42;;;;;;;5.63;2.42;;;-3274.80;83.20;;;;;;5019168;28;20054;-58
2021/03/08 01:23:09;;;;;;;8.63;3.30;;;-3274.80;82.80;;;;;;5020667;28;20050;-56
2021/03/08 01:25:36;;;;;;;4.82;2.78;;;-3274.90;82.90;;;;;;5023452;28;20084;-58
2021/03/08 01:28:06;;;;;;;4.38;2.40;;;-3274.90;83.00;;;;;;5023574;28;20062;-57
2021/03/08 01:30:37;;;;;;;5.32;2.20;;;-3274.80;83.20;;;;;;5027541;28;20057;-57
2021/03/08 01:33:06;;;;;;;4.95;2.13;;;-3274.80;83.20;;;;;;5023646;28;20329;-58
2021/03/08 01:35:33;;;;;;;3.17;1.63;;;-3274.70;83.30;;;;;;5020825;28;20061;-58
2021/03/08 01:38:00;;;;;;;4.18;2.08;;;-3274.70;83.40;;;;;;5029633;28;20290;-58
2021/03/08 01:40:30;;;;;;;4.63;2.90;;;-3274.70;83.20;;;;;;5028825;28;20126;-57
2021/03/08 01:42:58;;;;;;;5.28;2.30;;;-3274.60;83.80;;;;;;5023640;28;20054;-58
2021/03/08 01:45:27;;;;;;;5.63;2.58;;;-3274.60;84.10;;;;;;5026034;28;20360;-58
2021/03/08 01:47:54;;;;;;;6.13;3.45;;;-3274.60;84.20;;;;;;5024452;28;20042;-58
2021/03/08 01:50:30;;;;;;;4.45;2.17;;;-3274.60;84.20;;;;;;5026497;28;20037;-58
2021/03/08 01:52:58;;;;;;;3.70;2.00;;;-3274.60;84.50;;;;;;5026143;28;20116;-57
2021/03/08 01:55:27;;;;;;;5.43;2.22;;;-3274.50;84.70;;;;;;5026336;28;20065;-57
2021/03/08 01:57:55;;;;;;;5.00;2.72;;;-3274.40;84.60;;;;;;5023396;28;20122;-58
2021/03/08 02:00:23;;;;;;;3.47;1.92;;;-3274.50;84.50;;;;;;5027870;28;20128;-57
2021/03/08 02:02:52;;;;;;;7.35;2.83;;;-3274.60;84.40;;;;;;5028168;28;20137;-58
2021/03/08 02:05:23;;;;;;;3.58;2.00;;;-3274.50;84.40;;;;;;5028885;28;20060;-58
2021/03/08 02:07:50;;;;;;;7.30;2.70;;;-3274.50;84.30;;;;;;5028462;28;20049;-58
2021/03/08 02:10:18;;;;;;;3.90;1.83;;;-3274.40;84.60;;;;;;5028549;28;20206;-58
2021/03/08 02:13:03;;;;;;;12.27;3.30;;;-3274.40;84.70;;;;;;5026824;28;20042;-58
2021/03/08 02:15:40;;;;;;;5.10;2.38;;;-3274.40;84.80;;;;;;5026475;28;20326;-57
2021/03/08 02:18:14;;;;;;;6.03;1.98;;;-3274.30;84.90;;;;;;5021407;28;20080;-58
2021/03/08 02:20:56;;;;;;;3.83;2.17;;;-3274.30;85.10;;;;;;5023302;28;20071;-57
2021/03/08 02:23:51;;;;;;;3.25;1.73;;;-3274.40;85.20;;;;;;5020715;28;20344;-57
2021/03/08 02:26:45;;;;;;;4.97;2.42;;;-3274.40;84.80;;;;;;5020284;28;20905;-58
2021/03/08 02:29:47;;;;;;;4.25;2.28;;;-3274.50;84.80;;;;;;5016238;28;20167;-57
2021/03/08 02:32:20;;;;;;;5.32;2.67;;;-3274.50;84.50;;;;;;5031385;28;20341;-57
2021/03/08 02:34:55;;;;;;;3.92;2.20;;;-3274.50;83.90;;;;;;5030375;28;20042;-57
2021/03/08 02:37:29;;;;;;;4.28;1.92;;;-3274.50;84.10;;;;;;5029307;28;20432;-57
2021/03/08 02:40:03;;;;;;;4.10;1.85;;;-3274.50;83.90;;;;;;5030659;28;20045;-58
2021/03/08 02:42:36;;;;;;;4.88;2.30;;;-3274.50;83.90;;;;;;5027574;28;20344;-58
2021/03/08 02:45:04;;;;;;;8.15;3.40;;;-3274.60;83.50;;;;;;5029340;28;20056;-58
2021/03/08 02:47:34;;;;;;;10.20;4.65;;;-3274.50;83.30;;;;;;5032091;28;20054;-58
2021/03/08 02:50:05;;;;;;;12.88;5.50;;;-3274.50;83.20;;;;;;5030184;28;20414;-57
2021/03/08 02:52:37;;;;;;;10.35;4.45;;;-3274.40;83.70;;;;;;5028860;28;20045;-58
2021/03/08 02:55:06;;;;;;;9.20;3.83;;;-3274.30;83.80;;;;;;5028613;28;20046;-57
2021/03/08 02:57:38;;;;;;;3.78;2.17;;;-3274.20;84.20;;;;;;5027456;28;20104;-58
2021/03/08 03:00:16;;;;;;;;;;;-3274.20;85.00;;;;;;5023911;28;20052;-58
2021/03/08 03:02:46;;;;;;;7.25;2.88;;;-3274.20;85.70;;;;;;5026936;28;20120;-58
2021/03/08 03:05:17;;;;;;;7.40;2.90;;;-3274.30;85.30;;;;;;5016186;28;20543;-57
2021/03/08 03:07:49;;;;;;;9.50;2.33;;;-3274.20;85.30;;;;;;5000161;28;20053;-58
2021/03/08 03:10:27;;;;;;;3.33;2.45;;;-3274.20;85.60;;;;;;5015753;28;21133;-57
2021/03/08 03:12:56;;;;;;;5.22;2.63;;;-3274.10;85.50;;;;;;5005968;28;20054;-56
2021/03/08 03:15:24;;;;;;;8.43;2.47;;;-3274.10;85.60;;;;;;5007631;28;20048;-57
2021/03/08 03:17:54;;;;;;;4.57;2.47;;;-3274.20;85.40;;;;;;5023284;28;20049;-58
2021/03/08 03:20:27;;;;;;;4.47;2.60;;;-3274.00;85.30;;;;;;5019564;28;20375;-58
2021/03/08 03:22:55;;;;;;;;;;;-3274.00;85.40;;;;;;5020668;28;20049;-58
2021/03/08 03:25:25;;;;;;;5.30;2.05;;;-3274.00;85.70;;;;;;5018330;28;19925;-58
2021/03/08 03:27:52;;;;;;;4.88;2.53;;;-3274.00;85.60;;;;;;5020011;28;20209;-58
2021/03/08 03:30:22;;;;;;;4.13;2.38;;;-3273.90;85.80;;;;;;5017356;28;20049;-58
2021/03/08 03:32:49;;;;;;;3.60;1.63;;;-3273.80;86.10;;;;;;5019942;28;20084;-57
2021/03/08 03:35:20;;;;;;;4.95;3.05;;;-3273.90;86.40;;;;;;5019270;28;20448;-58
2021/03/08 03:37:52;;;;;;;6.50;2.20;;;-3273.90;86.40;;;;;;5017622;28;20053;-58
2021/03/08 03:40:20;;;;;;;4.38;2.17;;;-3273.90;86.10;;;;;;5019580;28;20402;-57
2021/03/08 03:42:50;;;;;;;3.47;1.67;;;-3274.00;86.30;;;;;;5020481;28;20103;-58
2021/03/08 03:45:18;;;;;;;3.08;1.48;;;-3274.00;85.90;;;;;;5017996;28;20391;-57
2021/03/08 03:47:48;;;;;;;3.28;2.08;;;-3274.10;85.70;;;;;;5020099;28;20125;-57
2021/03/08 03:50:18;;;;;;;5.00;1.73;;;-3274.10;85.60;;;;;;5019294;28;20351;-58
2021/03/08 03:52:45;;;;;;;4.65;2.30;;;-3274.10;85.30;;;;;;5023426;28;20050;-58
2021/03/08 03:55:16;;;;;;;5.28;2.40;;;-3274.00;85.80;;;;;;5021995;28;20072;-58
2021/03/08 03:57:50;;;;;;;;;;;-3274.00;85.70;;;;;;5024492;28;20052;-57
2021/03/08 04:00:23;;;;;;;6.93;2.20;;;-3274.00;85.70;;;;;;5010789;28;20965;-58
2021/03/08 04:02:57;;;;;;;7.30;3.03;;;-3273.90;85.70;;;;;;5013896;28;20260;-58
2021/03/08 04:05:25;;;;;;;5.05;2.40;;;-3273.90;85.90;;;;;;5018616;28;20045;-56
2021/03/08 04:07:54;;;;;;;4.47;2.70;;;-3274.00;85.80;;;;;;5025365;28;20226;-58
2021/03/08 04:10:26;;;;;;;4.25;1.90;;;-3274.00;85.50;;;;;;5010143;28;20113;-58
2021/03/08 04:12:58;;;;;;;5.22;2.90;;;-3274.10;85.50;;;;;;5022649;28;20053;-57
2021/03/08 04:15:28;;;;;;;5.60;2.25;;;-3274.10;85.70;;;;;;5024093;28;20080;-57
2021/03/08 04:17:55;;;;;;;4.72;2.42;;;-3274.10;85.30;;;;;;5025105;28;20049;-58
2021/03/08 04:20:22;;;;;;;6.05;2.47;;;-3274.10;85.00;;;;;;5021999;28;20052;-58
2021/03/08 04:22:52;;;;;;;6.18;3.30;;;-3274.10;84.70;;;;;;5024083;28;20112;-57
2021/03/08 04:25:20;;;;;;;5.80;2.25;;;-3274.00;85.20;;;;;;5025398;28;20096;-58
2021/03/08 04:27:48;;;;;;;3.85;2.83;;;-3273.90;85.40;;;;;;5022963;28;20057;-57
2021/03/08 04:30:19;;;;;;;5.25;2.75;;;-3273.90;85.50;;;;;;5023894;28;20464;-58
2021/03/08 04:32:53;;;;;;;5.47;2.95;;;-3273.90;85.70;;;;;;5024102;28;20053;-58
2021/03/08 04:35:24;;;;;;;5.45;2.63;;;-3273.90;85.70;;;;;;5025864;28;20538;-59
2021/03/08 04:37:52;;;;;;;8.90;2.88;;;-3273.90;85.90;;;;;;5023752;28;20049;-57
2021/03/08 04:40:20;;;;;;;7.22;3.33;;;-3273.90;85.90;;;;;;5023733;28;20041;-58
2021/03/08 04:42:48;;;;;;;5.05;2.00;;;-3273.80;85.70;;;;;;5020599;28;20107;-58
2021/03/08 04:45:19;;;;;;;3.25;2.15;;;-3273.80;85.80;;;;;;5014650;28;20349;-57
2021/03/08 04:47:47;;;;;;;5.95;3.28;;;-3273.80;86.40;;;;;;5000128;28;20066;-57
2021/03/08 04:50:15;;;;;;;4.97;2.75;;;-3273.80;86.40;;;;;;5009952;28;20427;-57
2021/03/08 04:52:47;;;;;;;5.45;2.75;;;-3273.80;86.00;;;;;;5009227;28;20041;-57
2021/03/08 04:55:19;;;;;;;7.30;3.70;;;-3273.80;86.10;;;;;;5008244;28;20447;-57
2021/03/08 04:57:49;;;;;;;6.65;2.80;;;-3273.90;86.20;;;;;;5011134;28;20054;-58
2021/03/08 05:00:19;;;;;;;5.43;3.35;;;-3273.80;86.30;;;;;;4994918;28;20102;-58
2021/03/08 05:02:48;;;;;;;6.20;2.45;;;-3273.80;86.70;;;;;;5011276;28;20357;-57
2021/03/08 05:05:21;;;;;;;6.32;3.05;;;-3273.80;86.40;;;;;;5009501;28;20434;-57
2021/03/08 05:07:56;;;;;;;5.65;2.33;;;-3273.80;86.50;;;;;;5007365;28;20355;-58
2021/03/08 05:10:27;;;;;;;4.55;2.85;;;-3273.80;86.20;;;;;;5000175;28;20073;-58
2021/03/08 05:12:54;;;;;;;8.38;2.45;;;-3273.80;86.20;;;;;;5003113;28;20065;-58
2021/03/08 05:15:26;;;;;;;7.85;3.55;;;-3273.80;86.60;;;;;;5001923;28;20054;-58
2021/03/08 05:17:55;;;;;;;5.20;3.00;;;-3273.80;86.70;;;;;;5000259;28;20046;-58
2021/03/08 05:20:23;;;;;;;6.03;3.42;;;-3273.80;86.40;;;;;;4994108;28;20122;-58
2021/03/08 05:22:51;;;;;;;7.22;3.13;;;-3273.80;86.40;;;;;;5000278;28;20231;-57
2021/03/08 05:25:20;;;;;;;9.27;2.55;;;-3273.70;86.40;;;;;;5001678;28;20054;-58
2021/03/08 05:27:50;;;;;;;9.68;3.10;;;-3273.70;86.30;;;;;;5002752;28;20065;-58
2021/03/08 05:30:19;;;;;;;11.18;2.80;;;-3273.70;86.50;;;;;;5011735;28;20508;-57
2021/03/08 05:32:52;;;;;;;5.47;2.53;;;-3273.80;86.40;;;;;;5021550;28;20062;-57
2021/03/08 05:35:21;;;;;;;4.03;2.25;;;-3273.90;86.60;;;;;;5019476;28;20833;-57
2021/03/08 05:37:48;;;;;;;6.25;2.38;;;-3274.00;86.70;;;;;;5021958;28;20241;-58
2021/03/08 05:40:28;;;;;;;5.53;2.13;;;-3274.10;86.10;;;;;;5003499;28;20180;-58
2021/03/08 05:43:08;;;;;;;4.78;2.50;;;-3274.20;86.10;;;;;;5001073;28;20049;-57
2021/03/08 05:45:39;;;;;;;4.53;2.75;;;-3274.30;85.50;;;;;;5002437;28;20379;-58
2021/03/08 05:48:35;;;;;;;5.57;2.50;;;-3274.40;85.10;;;;;;5004883;28;20065;-57
2021/03/08 05:51:55;;;;;;;5.18;2.85;;;-3274.40;85.00;;;;;;5009320;28;20054;-57
2021/03/08 05:55:16;;;;;;;4.80;2.70;;;-3274.60;84.70;;;;;;5011267;28;20188;-58
2021/03/08 05:58:02;;;;;;;4.75;3.05;;;-3274.70;84.70;;;;;;4966304;28;21171;-58
2021/03/08 06:01:02;;;;;;;5.07;2.95;;;-3274.80;83.80;;;;;;4995278;28;20380;-58
2021/03/08 06:03:45;;;;;;;3.92;2.83;;;-3274.80;84.20;;;;;;5007461;28;20676;-57
2021/03/08 06:06:58;;;;;;;4.10;2.53;;;-3274.90;83.80;;;;;;4998905;28;21163;-57
2021/03/08 06:09:25;;;;;;;8.15;3.17;;;-3275.00;83.10;;;;;;5007270;28;20619;-57
2021/03/08 06:12:00;;;;;;;4.10;1.90;;;-3275.10;83.40;;;;;;5010015;28;20141;-56
2021/03/08 06:14:38;;;;;;;4.10;2.45;;;-3275.10;83.00;;;;;;5011410;28;20054;-58
2021/03/08 06:17:08;;;;;;;7.88;3.03;;;-3275.20;82.70;;;;;;5012780;28;20042;-58
2021/03/08 06:19:39;;;;;;;5.90;2.03;;;-3275.20;82.70;;;;;;5009823;28;20091;-57
2021/03/08 06:22:13;;;;;;;4.70;2.70;;;-3275.40;82.50;;;;;;5004910;28;20074;-57
2021/03/08 06:24:43;;;;;;;6.18;3.47;;;-3275.60;81.60;;;;;;5011854;28;20134;-58
2021/03/08 06:27:15;;;;;;;6.00;2.95;;;-3275.70;81.00;;;;;;5000822;28;20042;-58
2021/03/08 06:29:47;;;;;;;11.50;4.63;;;-3275.70;80.80;;;;;;5007612;28;20287;-57
2021/03/08 06:32:15;;;;;;;5.88;3.30;;;-3275.80;80.50;;;;;;5010452;28;20366;-57
2021/03/08 06:34:45;;;;;;;9.00;4.25;;;-3275.90;80.50;;;;;;5011972;28;20253;-57
2021/03/08 06:37:14;;;;;;;7.60;3.70;;;-3275.90;80.20;;;;;;5008861;28;20113;-57
2021/03/08 06:39:42;;;;;;;7.13;3.55;;;-3276.00;80.00;;;;;;5009754;28;20180;-57
2021/03/08 06:42:10;;;;;;;4.85;2.75;;;-3276.10;80.20;;;;;;5008040;28;20145;-58
2021/03/08 06:44:38;;;;;;;6.50;2.78;;;-3276.10;79.90;;;;;;5008261;28;20057;-58
2021/03/08 06:47:08;;;;;;;7.43;4.55;;;-3276.20;79.50;;;;;;5006992;28;20057;-58
2021/03/08 06:49:37;;;;;;;7.45;3.80;;;-3276.20;79.30;;;;;;5009099;28;20053;-57
2021/03/08 06:52:06;;;;;;;7.65;4.20;;;-3276.30;79.20;;;;;;5006750;28;20065;-57
2021/03/08 06:54:34;;;;;;;7.55;3.53;;;-3276.30;79.00;;;;;;5006418;28;20061;-58
2021/03/08 06:57:01;;;;;;;5.45;2.97;;;-3276.40;78.80;;;;;;5007365;28;20109;-58
2021/03/08 06:59:29;;;;;;;7.57;3.92;;;-3276.40;78.60;;;;;;5007734;28;20109;-58
2021/03/08 07:01:59;;;;;;;8.23;4.15;;;-3276.40;78.60;;;;;;5009436;28;20272;-58
2021/03/08 07:04:30;;;;;;;9.25;4.25;;;-3276.50;78.40;;;;;;5007108;28;20266;-57
2021/03/08 07:07:01;;;;;;;7.22;3.60;;;-3276.50;78.60;;;;;;5008684;28;20058;-58
2021/03/08 07:09:33;;;;;;;6.55;3.47;;;-3276.60;78.60;;;;;;5006344;28;20042;-57
2021/03/08 07:12:07;;;;;;;7.28;4.80;;;-3276.70;78.00;;;;;;5008026;28;20038;-57
2021/03/08 07:14:35;;;;;;;9.57;3.80;;;-3276.70;78.00;;;;;;5008244;28;20057;-56
2021/03/08 07:17:03;;;;;;;9.27;4.65;;;-3276.70;77.60;;;;;;5008659;28;20057;-58
2021/03/08 07:19:30;;;;;;;8.00;4.57;;;-3276.60;77.90;;;;;;5006126;28;20065;-57
2021/03/08 07:22:01;;;;;;;8.18;4.53;;;-3276.70;78.10;;;;;;5007433;28;20449;-57
2021/03/08 07:24:30;;;;;;;13.43;5.53;;;0.00;77.40;;;;;;5006131;28;20233;-58
2021/03/08 07:26:57;;;;;;;11.35;4.80;;;0.10;77.10;;;;;;5007600;28;20046;-58
2021/03/08 07:29:25;;;;;;;9.65;4.15;;;0.10;76.80;;;;;;5009585;28;20288;-57
2021/03/08 07:31:53;;;;;;;15.07;4.55;;;0.20;76.70;;;;;;5010174;28;20054;-57
2021/03/08 07:34:21;;;;;;;8.07;4.50;;;0.30;75.90;;;;;;5009521;28;20054;-58
2021/03/08 07:36:57;;;;;;;11.27;5.32;;;0.10;76.40;;;;;;5009939;28;20340;-58
2021/03/08 07:39:26;;;;;;;12.27;6.18;;;0.20;76.80;;;;;;5009965;28;20567;-58
2021/03/08 07:41:55;;;;;;;9.45;5.07;;;0.30;76.50;;;;;;5010014;28;20045;-58
2021/03/08 07:44:24;;;;;;;9.80;4.47;;;0.40;75.50;;;;;;5014115;28;20349;-58
2021/03/08 07:46:51;;;;;;;10.10;3.72;;;0.50;75.70;;;;;;5014969;28;20068;-57
2021/03/08 07:49:32;;;;;;;6.00;3.75;;;0.50;75.20;;;;;;5011074;28;20065;-59
2021/03/08 07:52:22;;;;;;;5.88;3.67;;;0.70;75.80;;;;;;5010287;28;20056;-57
2021/03/08 07:54:54;;;;;;;8.33;3.83;;;0.70;74.90;;;;;;5017720;28;20332;-57
2021/03/08 07:57:21;;;;;;;6.47;3.92;;;0.40;76.10;;;;;;5007145;28;20049;-58
2021/03/08 07:59:48;;;;;;;8.40;4.20;;;0.40;76.30;;;;;;5011399;28;20065;-58
2021/03/08 08:02:15;;;;;;;12.85;4.90;;;0.40;76.50;;;;;;5009043;28;20075;-58
2021/03/08 08:04:42;;;;;;;9.15;4.20;;;0.40;76.00;;;;;;5014799;28;20061;-59
2021/03/08 08:07:11;;;;;;;9.27;4.32;;;0.60;76.50;;;;;;5013715;28;20048;-58
2021/03/08 08:09:40;;;;;;;9.18;4.57;;;0.90;74.90;;;;;;5014600;28;20046;-58
2021/03/08 08:12:12;;;;;;;8.70;4.65;;;0.90;74.70;;;;;;5008147;28;20353;-57
2021/03/08 08:14:40;;;;;;;7.45;4.18;;;1.10;74.30;;;;;;5011375;28;20061;-58
2021/03/08 08:17:09;;;;;;;10.80;5.75;;;1.10;74.20;;;;;;5013867;28;20072;-58
2021/03/08 08:19:39;;;;;;;10.48;4.90;;;1.10;74.10;;;;;;5013889;28;20050;-58
2021/03/08 08:22:09;;;;;;;6.53;4.07;;;1.20;74.70;;;;;;5014208;28;20052;-58
2021/03/08 08:24:36;;;;;;;9.00;3.60;;;1.30;73.90;;;;;;5014153;28;20081;-58
2021/03/08 08:27:04;;;;;;;10.52;6.22;;;1.40;73.20;;;;;;5008818;28;20111;-56
2021/03/08 08:29:33;;;;;;;11.52;3.70;;;1.50;72.90;;;;;;5012146;28;20053;-58
2021/03/08 08:32:02;;;;;;;14.07;5.13;;;1.50;72.70;;;;;;5010345;28;20081;-57
2021/03/08 08:34:34;;;;;;;11.77;4.50;;;1.50;72.50;;;;;;5010947;28;20203;-58
2021/03/08 08:37:11;;;;;;;7.47;3.97;;;1.60;72.60;;;;;;5009626;28;20072;-57
2021/03/08 08:39:39;;;;;;;12.70;6.03;;;1.70;72.70;;;;;;5011270;28;20050;-58
2021/03/08 08:42:17;;;;;;;9.05;4.75;;;1.70;72.90;;;;;;5009506;28;20072;-58
2021/03/08 08:44:46;;;;;;;13.63;5.25;;;1.80;72.70;;;;;;5011314;28;20089;-58
2021/03/08 08:47:24;;;;;;;8.95;5.57;;;1.70;72.30;;;;;;5012760;28;20152;-57
2021/03/08 08:49:54;;;;;;;13.57;8.40;;;1.40;72.60;;;;;;5010959;28;20053;-57
2021/03/08 08:52:44;;;;;;;8.77;5.28;;;1.70;72.50;;;;;;5009289;28;20053;-58
2021/03/08 08:55:12;;;;;;;9.75;4.47;;;1.80;72.20;;;;;;5030508;28;20351;-59
2021/03/08 08:57:39;;;;;;;9.85;6.10;;;1.80;71.80;;;;;;5014806;28;20058;-59
2021/03/08 09:00:22;;;;;;;29.77;16.13;;;1.80;71.80;;;;;;5030873;28;20387;-58
2021/03/08 09:02:50;;;;;;;26.38;11.82;;;1.80;72.00;;;;;;5030782;28;20367;-57
2021/03/08 09:05:41;;;;;;;11.50;4.75;;;2.10;71.50;;;;;;5022722;28;20343;-59
2021/03/08 09:08:29;;;;;;;;;;;2.20;69.60;;;;;;5003445;28;20088;-58
2021/03/08 09:10:57;;;;;;;11.02;6.10;;;2.20;70.00;;;;;;5013889;28;19945;-57
2021/03/08 09:13:26;;;;;;;7.22;4.15;;;2.00;69.70;;;;;;5016973;28;20109;-58
2021/03/08 09:15:54;;;;;;;9.73;4.90;;;1.90;69.90;;;;;;5022550;28;20057;-58
2021/03/08 09:18:35;;;;;;;8.55;4.47;;;2.00;69.50;;;;;;5024948;28;20064;-59
2021/03/08 09:21:19;;;;;;;;;;;2.10;69.20;;;;;;5025858;28;20061;-59
2021/03/08 09:23:46;;;;;;;12.75;6.35;;;2.20;69.30;;;;;;5021093;28;20239;-58
2021/03/08 09:26:12;;;;;;;10.00;5.50;;;2.30;69.70;;;;;;5022749;28;20045;-58
2021/03/08 09:28:50;;;;;;;11.32;5.47;;;2.40;68.20;;;;;;5023635;28;20500;-58
2021/03/08 09:31:21;;;;;;;14.95;5.85;;;2.30;69.00;;;;;;5022850;28;20642;-58
2021/03/08 09:33:48;;;;;;;9.73;4.78;;;2.60;68.40;;;;;;5024630;28;20400;-58
2021/03/08 09:36:15;;;;;;;10.63;5.43;;;2.60;67.80;;;;;;5025659;28;20060;-57
2021/03/08 09:38:43;;;;;;;9.88;5.40;;;2.70;68.60;;;;;;5024037;28;20057;-58
2021/03/08 09:41:09;;;;;;;10.13;4.65;;;2.60;68.20;;;;;;5026381;28;20053;-57
2021/03/08 09:43:38;;;;;;;10.50;5.03;;;2.90;68.40;;;;;;5022887;28;20046;-58
2021/03/08 09:46:08;;;;;;;11.55;5.32;;;3.00;67.30;;;;;;5019735;28;20352;-58
2021/03/08 09:48:38;;;;;;;7.85;4.65;;;3.00;66.70;;;;;;5023563;28;20134;-58
2021/03/08 09:51:07;;;;;;;12.10;6.00;;;3.30;66.40;;;;;;5022323;28;20045;-57
2021/03/08 09:53:36;;;;;;;10.18;5.18;;;3.30;65.60;;;;;;5022278;28;20049;-58
2021/03/08 09:56:14;;;;;;;12.50;5.82;;;3.40;64.50;;;;;;5023244;28;20369;-57
2021/03/08 09:58:42;;;;;;;13.43;6.25;;;3.40;65.30;;;;;;5023842;28;20240;-58
2021/03/08 10:01:13;;;;;;;9.82;4.78;;;3.30;66.40;;;;;;5020369;28;20045;-58
2021/03/08 10:03:41;;;;;;;9.63;4.80;;;3.50;65.10;;;;;;5025281;28;20069;-57
2021/03/08 10:06:08;;;;;;;8.32;5.07;;;3.50;64.20;;;;;;5022611;28;20055;-58
2021/03/08 10:08:35;;;;;;;8.15;4.53;;;3.50;63.70;;;;;;5023117;28;20050;-58
2021/03/08 10:11:02;;;;;;;9.48;4.30;;;3.70;63.40;;;;;;5020598;28;20061;-58
2021/03/08 10:13:35;;;;;;;6.23;3.57;;;3.40;63.10;;;;;;5020575;28;20285;-57
2021/03/08 10:16:06;;;;;;;11.43;4.28;;;3.60;63.20;;;;;;5020078;28;20657;-57
2021/03/08 10:18:32;;;;;;;6.53;3.85;;;3.70;62.70;;;;;;5019707;28;20064;-58
2021/03/08 10:21:02;;;;;;;6.47;3.78;;;3.80;61.80;;;;;;5018189;28;20557;-57
2021/03/08 10:23:31;;;;;;;8.98;3.63;;;4.00;62.60;;;;;;5017153;28;20046;-58
2021/03/08 10:26:04;;;;;;;18.08;9.20;;;4.20;61.80;;;;;;5016492;28;20054;-59
2021/03/08 10:28:40;;;;;;;14.23;5.57;;;3.90;62.20;;;;;;5018653;28;20508;-58
2021/03/08 10:31:16;;;;;;;7.35;4.25;;;3.90;62.50;;;;;;5020604;28;20068;-57
2021/03/08 10:33:45;;;;;;;5.65;3.60;;;3.70;64.10;;;;;;5017368;28;20338;-57
2021/03/08 10:36:17;;;;;;;9.65;4.20;;;4.10;63.50;;;;;;5019682;28;20054;-57
2021/03/08 10:38:44;;;;;;;7.50;4.53;;;4.00;63.70;;;;;;5022578;28;20095;-56
2021/03/08 10:41:13;;;;;;;6.78;3.80;;;4.30;62.40;;;;;;5018337;28;20081;-57
2021/03/08 10:43:43;;;;;;;10.73;4.60;;;4.40;62.30;;;;;;5020864;28;20064;-57
2021/03/08 10:46:10;;;;;;;11.30;4.73;;;4.50;62.50;;;;;;5019033;28;20054;-56
2021/03/08 10:48:53;;;;;;;9.27;3.97;;;4.50;62.60;;;;;;5024073;28;20309;-58
2021/03/08 10:51:21;;;;;;;5.85;3.83;;;4.40;62.00;;;;;;5019562;28;20836;-58
2021/03/08 10:53:59;;;;;;;5.45;3.10;;;4.50;61.90;;;;;;5018300;28;20049;-59
2021/03/08 10:56:26;;;;;;;9.40;3.85;;;4.60;61.80;;;;;;5025171;28;20503;-57
2021/03/08 10:58:54;;;;;;;8.18;3.42;;;4.50;62.50;;;;;;5020492;28;20038;-57
2021/03/08 11:01:21;;;;;;;7.60;3.28;;;4.70;61.80;;;;;;5023578;28;20049;-57
2021/03/08 11:03:48;;;;;;;6.75;3.50;;;4.90;61.10;;;;;;5020617;28;20121;-58
2021/03/08 11:06:16;;;;;;;8.23;3.53;;;4.80;60.80;;;;;;5022619;28;20096;-57
2021/03/08 11:08:56;;;;;;;9.70;4.07;;;4.40;61.90;;;;;;5026476;28;20283;-58
2021/03/08 11:11:27;;;;;;;8.50;4.53;;;4.40;61.70;;;;;;5018440;28;20595;-58
2021/03/08 11:13:58;;;;;;;9.00;4.00;;;4.50;61.10;;;;;;5022477;28;20052;-57
2021/03/08 11:16:25;;;;;;;9.13;3.83;;;4.70;60.80;;;;;;5014640;28;20371;-58
2021/03/08 11:18:51;;;;;;;7.40;3.55;;;4.50;60.30;;;;;;5015800;28;20054;-58
2021/03/08 11:21:28;;;;;;;9.40;4.47;;;4.90;60.80;;;;;;5019027;28;20108;-57
2021/03/08 11:24:15;;;;;;;8.95;3.80;;;5.20;59.50;;;;;;5016851;28;20050;-57
2021/03/08 11:26:42;;;;;;;11.13;4.18;;;5.50;58.50;;;;;;5020191;28;20054;-57
2021/03/08 11:29:23;;;;;;;10.25;3.55;;;5.40;58.20;;;;;;5022468;28;20318;-57
2021/03/08 11:31:53;;;;;;;10.77;4.60;;;5.40;58.20;;;;;;5022033;28;20084;-58
2021/03/08 11:34:36;;;;;;;5.68;3.20;;;5.30;59.30;;;;;;5022098;28;20077;-58
2021/03/08 11:37:08;;;;;;;6.25;3.58;;;5.60;58.00;;;;;;5021409;28;20055;-58
2021/03/08 11:39:42;;;;;;;9.63;3.72;;;5.80;58.10;;;;;;5019837;28;20417;-58
2021/03/08 11:42:10;;;;;;;9.18;3.88;;;6.20;56.50;;;;;;5021464;28;20061;-58
2021/03/08 11:44:38;;;;;;;6.85;3.45;;;6.20;55.90;;;;;;5025100;28;20241;-58
2021/03/08 11:47:07;;;;;;;8.10;4.43;;;6.20;55.60;;;;;;5021320;28;20061;-58
2021/03/08 11:49:33;;;;;;;7.63;3.63;;;6.10;55.50;;;;;;5018017;28;20053;-58
2021/03/08 11:52:03;;;;;;;7.57;3.65;;;6.20;56.60;;;;;;5021586;28;20046;-58
2021/03/08 11:54:30;;;;;;;8.82;3.92;;;6.70;54.60;;;;;;5022139;28;20244;-57
2021/03/08 11:56:59;;;;;;;6.25;3.33;;;7.00;54.20;;;;;;5029460;28;20045;-57
2021/03/08 11:59:26;;;;;;;9.02;4.13;;;7.10;53.80;;;;;;5021672;28;20550;-57
2021/03/08 12:01:53;;;;;;;8.35;3.35;;;7.00;52.90;;;;;;5019417;28;20247;-58
2021/03/08 12:04:20;;;;;;;7.70;4.03;;;7.20;53.30;;;;;;5020336;28;20221;-57
2021/03/08 12:06:47;;;;;;;7.25;4.15;;;7.50;51.70;;;;;;5020931;28;20052;-58
2021/03/08 12:09:14;;;;;;;7.10;3.40;;;7.60;51.30;;;;;;5021277;28;20707;-58
2021/03/08 12:11:41;;;;;;;10.13;3.58;;;7.30;52.40;;;;;;5017685;28;20273;-58
2021/03/08 12:14:09;;;;;;;9.80;4.38;;;7.20;52.30;;;;;;5017877;28;20084;-57
2021/03/08 12:16:36;;;;;;;10.98;4.75;;;7.60;52.20;;;;;;5021176;28;20041;-57
2021/03/08 12:19:05;;;;;;;10.98;4.88;;;7.90;51.10;;;;;;5022325;28;20050;-57
2021/03/08 12:21:35;;;;;;;7.93;4.03;;;7.90;50.90;;;;;;5019198;28;20041;-57
2021/03/08 12:24:06;;;;;;;12.00;4.47;;;8.00;50.60;;;;;;5018580;28;20057;-57
2021/03/08 12:26:32;;;;;;;12.60;5.57;;;7.80;50.70;;;;;;5019256;28;20073;-59
2021/03/08 12:28:59;;;;;;;10.10;5.30;;;8.10;50.90;;;;;;5020539;28;20084;-56
2021/03/08 12:31:27;;;;;;;10.63;5.18;;;8.30;50.10;;;;;;4997942;28;20364;-57
2021/03/08 12:33:54;;;;;;;7.32;3.02;;;8.40;50.20;;;;;;976913;28;10002321;-57
2021/03/08 12:36:20;;;;;;;13.10;5.05;;;8.40;49.90;;;;;;5022327;28;20042;-57
2021/03/08 12:38:47;;;;;;;10.82;5.45;;;8.40;50.10;;;;;;5027755;28;20132;-57
2021/03/08 12:41:33;;;;;;;12.48;4.93;;;8.60;49.40;;;;;;5015439;28;20057;-58
2021/03/08 12:44:00;;;;;;;10.05;4.32;;;8.50;49.90;;;;;;5006553;28;20431;-57
2021/03/08 12:46:30;;;;;;;9.43;4.22;;;8.80;49.30;;;;;;5002264;28;20160;-58
2021/03/08 12:48:57;;;;;;;9.82;4.55;;;8.90;48.70;;;;;;5004787;28;20311;-58
2021/03/08 12:51:24;;;;;;;11.40;4.93;;;8.90;48.70;;;;;;5000673;28;20117;-58
2021/03/08 12:53:51;;;;;;;9.98;5.18;;;9.50;48.30;;;;;;5004686;28;20060;-57